Etusivu
METAR-TAF:

METAR-TAF

Lentoasemat :

Deming, New Mexico, Yhdysvallat

Leveyspiiri: 32-15-44N, Pituuspiiri: 107-43-14W, korkeus merenpinnasta: 1315 m

Tämänhetkinen sää

Tämä raportti tehtiin 51 minuuttia sitten, kello 10.53 UTC
Tuuli 7 kn idästä/koillisesta puuskistuen 19 kn:hen
Lämpötila 24°C
Kosteus 36%
Ilmanpaine 1021 hPa
Näkyvyys: 16.1 km
selkeää

METAR: KDMN 121053Z AUTO 06007G19KT 10SM CLR 24/08 A3016 RMK AO2 SLP126 T02390078

Aika: 05:44 (11:44 UTC)

Sääennuste

Tämä raportti tehtiin 19 minuuttia sitten, kello 11.25 UTC
Ennuste voimassa 12. päivästä klo 12 UTC - 13. päivään klo 12 UTC
Tuuli 12 kn idästä/koillisesta
Näkyvyys: 10 km
selkeää
From 12. päivästä klo 1900 UTC
Tuuli 12 kn idästä/kaakosta puuskistuen 20 kn:hen
Näkyvyys: 10 km
Muutamia pilviä 10000 ft:n korkeudessa
Hajanaisia pilviä 25000 ft:n korkeudessa

TAF: KDMN 121125Z 1212/1312 07012KT P6SM SKC FM121900 12012G20KT P6SM FEW100 SCT250

Säähavainnot ja -ennusteet yli 4000 lentoasemalta (METAR- ja TAF-raportit).

Käytössä olevat sääasemat on merkitty karttaan keltaisilla ja punaisilla pisteillä.

Aseta hiiri pisteen päälle nähdäksesi sääaseman nimen.

Klikkaa sitten nähdäksesi säähavainnot ja -ennusteet.

Kartan vaihtaminen: klikkaa mustalla rastilla varustettuja vihreitä pisteitä, niin voit zoomata sisään; viivalla varustettua vihreää pistettä, niin voit zoomata ulos tai vihreitä nuolia, niin pääset viereisille kartoille.


METAR-TAF: